createdAt,value
2017-10-19T00:00:32.613Z,88.90
2017-10-19T00:03:01.779Z,88.20
2017-10-19T00:05:33.513Z,88.80
2017-10-19T00:08:02.770Z,88.40
2017-10-19T00:10:32.110Z,88.60
2017-10-19T00:13:02.714Z,88.70
2017-10-19T00:15:32.317Z,88.70
2017-10-19T00:18:01.305Z,88.70
2017-10-19T00:20:30.220Z,88.90
2017-10-19T00:22:59.318Z,89.00
2017-10-19T00:25:28.509Z,89.00
2017-10-19T00:27:57.721Z,89.10
2017-10-19T00:30:27.098Z,89.10
2017-10-19T00:32:56.245Z,89.30
2017-10-19T00:35:25.266Z,89.40
2017-10-19T00:37:54.323Z,89.50
2017-10-19T00:40:23.468Z,89.60
2017-10-19T00:42:52.573Z,89.70
2017-10-19T00:45:22.369Z,90.00
2017-10-19T00:47:51.317Z,90.00
2017-10-19T00:50:24.624Z,90.20
2017-10-19T00:53:03.407Z,90.10
2017-10-19T00:55:42.688Z,90.20
2017-10-19T00:58:12.363Z,90.30
2017-10-19T01:00:41.691Z,90.30
2017-10-19T01:03:11.436Z,90.40
2017-10-19T01:05:40.595Z,90.40
2017-10-19T01:08:10.611Z,90.50
2017-10-19T01:10:40.023Z,90.50
2017-10-19T01:13:10.016Z,90.50
2017-10-19T01:15:39.994Z,90.50
2017-10-19T01:18:09.330Z,90.50
2017-10-19T01:20:38.677Z,90.60
2017-10-19T01:23:08.165Z,90.50
2017-10-19T01:25:38.295Z,90.70
2017-10-19T01:28:07.433Z,90.70
2017-10-19T01:30:36.591Z,90.80
2017-10-19T01:33:06.540Z,90.80
2017-10-19T01:35:35.750Z,91.00
2017-10-19T01:38:05.323Z,91.20
2017-10-19T01:40:35.613Z,90.90
2017-10-19T01:43:07.088Z,91.00
2017-10-19T01:45:36.859Z,91.00
2017-10-19T01:48:08.827Z,91.30
2017-10-19T01:50:39.281Z,91.10
2017-10-19T01:53:11.027Z,91.10
2017-10-19T01:55:40.321Z,91.20
2017-10-19T01:58:09.604Z,91.20
2017-10-19T02:00:38.656Z,91.30
2017-10-19T02:03:08.039Z,91.30
2017-10-19T02:05:38.036Z,91.70
2017-10-19T02:08:07.396Z,91.40
2017-10-19T02:10:36.590Z,91.50
2017-10-19T02:13:05.877Z,91.60
2017-10-19T02:15:35.062Z,91.60
2017-10-19T02:18:05.226Z,91.70
2017-10-19T02:20:34.298Z,91.70
2017-10-19T02:23:03.583Z,91.70
2017-10-19T02:25:32.840Z,91.70
2017-10-19T02:28:06.965Z,91.70
2017-10-19T02:30:37.314Z,91.80
2017-10-19T02:33:06.481Z,91.70
2017-10-19T02:35:35.744Z,91.70
2017-10-19T02:38:05.552Z,91.80
2017-10-19T02:40:35.373Z,91.80
2017-10-19T02:43:09.260Z,91.80
2017-10-19T02:45:38.681Z,91.80
2017-10-19T02:48:08.082Z,91.90
2017-10-19T02:50:37.678Z,91.90
2017-10-19T02:53:07.190Z,91.90
2017-10-19T02:55:36.536Z,92.00
2017-10-19T02:58:06.163Z,92.10
2017-10-19T03:00:35.602Z,92.10
2017-10-19T03:03:04.812Z,92.10
2017-10-19T03:05:34.105Z,92.10
2017-10-19T03:08:03.339Z,92.20
2017-10-19T03:13:53.209Z,92.30
2017-10-19T03:16:22.630Z,92.30
2017-10-19T03:18:52.019Z,92.30
2017-10-19T03:21:21.209Z,92.30
2017-10-19T03:23:50.389Z,92.40
2017-10-19T03:26:19.558Z,92.40
2017-10-19T03:28:49.573Z,92.30
2017-10-19T03:31:19.353Z,92.30
2017-10-19T03:33:48.485Z,92.30
2017-10-19T03:36:19.522Z,92.20
2017-10-19T03:38:49.546Z,92.20
2017-10-19T03:41:19.497Z,92.20
2017-10-19T03:43:48.702Z,92.20
2017-10-19T03:46:17.898Z,92.20
2017-10-19T03:48:48.232Z,92.10
2017-10-19T03:51:17.388Z,92.20
2017-10-19T03:53:46.560Z,92.20
2017-10-19T03:56:15.806Z,92.20
2017-10-19T03:58:44.980Z,92.20
2017-10-19T04:01:14.971Z,92.30
2017-10-19T04:03:44.187Z,92.30
2017-10-19T04:06:14.469Z,92.50
2017-10-19T04:08:43.777Z,92.50
2017-10-19T04:11:13.524Z,92.40
2017-10-19T04:13:43.557Z,92.40
2017-10-19T04:16:12.835Z,92.40
2017-10-19T04:18:42.807Z,92.40
2017-10-19T04:21:12.050Z,92.40
2017-10-19T04:23:42.102Z,92.40
2017-10-19T04:26:14.542Z,92.40
2017-10-19T04:28:44.769Z,92.60
2017-10-19T04:31:14.785Z,92.60
2017-10-19T04:33:44.017Z,92.60
2017-10-19T04:36:13.279Z,92.60
2017-10-19T04:38:43.282Z,92.60
2017-10-19T04:41:13.533Z,92.50
2017-10-19T04:43:43.972Z,92.50
2017-10-19T04:46:13.926Z,92.50
2017-10-19T04:48:44.441Z,92.40
2017-10-19T04:51:13.707Z,92.50
2017-10-19T04:53:43.455Z,92.40
2017-10-19T04:56:13.042Z,92.50
2017-10-19T04:58:43.534Z,92.40
2017-10-19T05:01:12.908Z,92.50
2017-10-19T05:03:42.322Z,92.60
2017-10-19T05:06:12.351Z,92.70
2017-10-19T05:08:42.837Z,92.50
2017-10-19T05:11:13.068Z,92.50
2017-10-19T05:13:42.523Z,92.60
2017-10-19T05:16:12.632Z,92.50
2017-10-19T05:18:41.903Z,92.40
2017-10-19T05:21:11.681Z,92.50
2017-10-19T05:23:41.205Z,92.30
2017-10-19T05:26:10.716Z,92.30
2017-10-19T05:28:40.776Z,92.20
2017-10-19T05:31:12.063Z,92.30
2017-10-19T05:33:42.246Z,92.30
2017-10-19T05:36:12.904Z,92.40
2017-10-19T05:38:42.414Z,92.40
2017-10-19T05:41:11.966Z,92.40
2017-10-19T05:43:41.852Z,92.50
2017-10-19T05:46:11.312Z,92.40
2017-10-19T05:48:41.569Z,92.60
2017-10-19T05:51:12.102Z,92.60
2017-10-19T05:53:41.772Z,92.50
2017-10-19T05:56:12.124Z,92.60
2017-10-19T05:58:41.571Z,92.60
2017-10-19T06:01:26.176Z,92.50
2017-10-19T06:03:59.358Z,92.60
2017-10-19T06:06:29.906Z,92.40
2017-10-19T06:09:01.612Z,92.50
2017-10-19T06:11:31.825Z,92.50
2017-10-19T06:14:02.532Z,92.40
2017-10-19T06:16:31.899Z,92.40
2017-10-19T06:19:03.979Z,92.30
2017-10-19T06:21:33.593Z,92.30
2017-10-19T06:24:07.450Z,92.30
2017-10-19T06:26:45.096Z,92.30
2017-10-19T06:29:15.757Z,92.30
2017-10-19T06:31:46.500Z,92.20
2017-10-19T06:34:16.725Z,92.30
2017-10-19T06:36:47.142Z,92.30
2017-10-19T06:39:19.898Z,92.30
2017-10-19T06:41:55.947Z,92.30
2017-10-19T06:44:35.591Z,92.20
2017-10-19T06:47:06.750Z,92.30
2017-10-19T06:49:39.038Z,92.10
2017-10-19T06:52:08.820Z,92.00
2017-10-19T06:54:38.411Z,92.00
2017-10-19T06:57:08.051Z,92.00
2017-10-19T06:59:38.487Z,91.90
2017-10-19T07:02:07.849Z,91.90
2017-10-19T07:04:38.262Z,91.70
2017-10-19T07:07:09.344Z,91.70
2017-10-19T07:09:38.962Z,91.70
2017-10-19T07:12:08.583Z,91.40
2017-10-19T07:14:38.020Z,91.30
2017-10-19T07:17:08.248Z,91.10
2017-10-19T07:19:40.420Z,90.90
2017-10-19T07:22:10.354Z,90.90
2017-10-19T07:24:39.710Z,90.70
2017-10-19T07:27:09.190Z,90.60
2017-10-19T07:29:39.241Z,90.20
2017-10-19T07:32:08.726Z,90.30
2017-10-19T07:34:38.191Z,90.20
2017-10-19T07:37:07.533Z,90.10
2017-10-19T07:39:37.286Z,89.80
2017-10-19T07:42:07.609Z,89.40
2017-10-19T07:44:38.039Z,89.20
2017-10-19T07:47:08.505Z,88.90
2017-10-19T07:49:38.115Z,88.90
2017-10-19T07:52:07.915Z,88.80
2017-10-19T07:54:37.562Z,89.00
2017-10-19T07:57:07.084Z,88.30
2017-10-19T07:59:36.420Z,87.90
2017-10-19T08:02:05.799Z,87.50
2017-10-19T08:04:43.801Z,87.30
2017-10-19T08:07:16.709Z,87.10
2017-10-19T08:09:46.220Z,87.10
2017-10-19T08:12:15.475Z,86.60
2017-10-19T08:14:44.959Z,86.50
2017-10-19T08:17:14.743Z,86.00
2017-10-19T08:19:44.243Z,86.10
2017-10-19T08:22:14.395Z,85.80
2017-10-19T08:24:44.008Z,85.60
2017-10-19T08:27:13.482Z,85.30
2017-10-19T08:29:43.047Z,85.10
2017-10-19T08:32:13.603Z,84.60
2017-10-19T08:34:42.942Z,84.60
2017-10-19T08:37:12.309Z,84.80
2017-10-19T08:39:41.614Z,84.20
2017-10-19T08:42:11.195Z,83.90
2017-10-19T08:44:40.675Z,83.60
2017-10-19T08:47:10.220Z,83.70
2017-10-19T08:49:43.075Z,83.10
2017-10-19T08:52:12.878Z,83.00
2017-10-19T08:54:43.263Z,82.20
2017-10-19T08:57:15.501Z,82.20
2017-10-19T08:59:49.144Z,81.80
2017-10-19T09:02:20.374Z,81.80
2017-10-19T09:04:56.131Z,81.30
2017-10-19T09:07:27.956Z,81.30
2017-10-19T09:10:05.253Z,81.20
2017-10-19T09:12:41.016Z,81.20
2017-10-19T09:15:11.533Z,80.40
2017-10-19T09:17:41.580Z,80.20
2017-10-19T09:20:11.090Z,79.60
2017-10-19T09:22:40.463Z,78.90
2017-10-19T09:25:10.605Z,78.70
2017-10-19T09:27:52.441Z,78.50
2017-10-19T09:30:27.629Z,78.50
2017-10-19T09:32:57.203Z,78.70
2017-10-19T09:35:26.835Z,78.40
2017-10-19T09:37:56.182Z,78.20
2017-10-19T09:40:27.191Z,77.50
2017-10-19T09:42:57.022Z,77.40
2017-10-19T09:45:27.205Z,76.50
2017-10-19T09:47:58.636Z,74.90
2017-10-19T09:50:28.943Z,74.80
2017-10-19T09:52:59.912Z,74.60
2017-10-19T09:55:29.585Z,74.10
2017-10-19T09:57:59.326Z,73.90
2017-10-19T10:00:31.610Z,73.80
2017-10-19T10:03:07.580Z,73.70
2017-10-19T10:05:39.280Z,73.30
2017-10-19T10:08:08.782Z,72.60
2017-10-19T10:10:39.086Z,72.00
2017-10-19T10:13:10.349Z,71.30
2017-10-19T10:15:51.894Z,70.60
2017-10-19T10:18:37.016Z,69.40
2017-10-19T10:21:09.984Z,68.10
2017-10-19T10:23:40.308Z,67.00
2017-10-19T10:26:16.548Z,65.90
2017-10-19T10:28:46.133Z,64.80
2017-10-19T10:31:16.095Z,64.40
2017-10-19T10:33:45.979Z,63.80
2017-10-19T10:36:18.295Z,61.80
2017-10-19T10:39:55.222Z,57.80
2017-10-19T10:42:26.914Z,55.90
2017-10-19T10:45:02.265Z,53.20
2017-10-19T10:47:32.880Z,51.80
2017-10-19T10:50:08.240Z,49.70
2017-10-19T10:52:39.032Z,49.70
2017-10-19T10:55:09.558Z,49.70
2017-10-19T10:57:42.275Z,48.10
2017-10-19T11:00:13.662Z,48.00
2017-10-19T11:02:43.133Z,47.00
2017-10-19T11:05:13.034Z,47.10
2017-10-19T11:07:43.339Z,47.10
2017-10-19T11:10:13.742Z,47.30
2017-10-19T11:12:43.071Z,47.20
2017-10-19T11:15:20.772Z,44.80
2017-10-19T11:18:02.424Z,44.80
2017-10-19T11:20:40.768Z,49.50
2017-10-19T11:23:16.717Z,51.20
2017-10-19T11:26:01.303Z,51.80
2017-10-19T11:28:42.838Z,52.10
2017-10-19T11:31:20.107Z,50.80
2017-10-19T11:33:51.687Z,49.20
2017-10-19T11:36:28.400Z,49.80
2017-10-19T11:38:59.055Z,49.50
2017-10-19T11:41:30.925Z,48.90
2017-10-19T11:44:01.738Z,48.10
2017-10-19T11:46:31.248Z,46.60
2017-10-19T11:49:09.736Z,48.10
2017-10-19T11:51:40.514Z,49.50
2017-10-19T11:54:12.627Z,48.00
2017-10-19T11:56:42.101Z,47.50
2017-10-19T11:59:16.270Z,47.80
2017-10-19T12:01:46.737Z,52.40
2017-10-19T12:04:16.164Z,52.30
2017-10-19T12:06:46.481Z,53.60
2017-10-19T12:09:37.230Z,52.40
2017-10-19T12:12:18.063Z,50.80
2017-10-19T12:15:01.474Z,50.70
2017-10-19T12:17:37.620Z,49.90
2017-10-19T12:20:11.604Z,51.00
2017-10-19T12:22:43.302Z,51.90
2017-10-19T12:25:12.762Z,50.80
2017-10-19T12:27:43.662Z,50.60
2017-10-19T12:30:13.282Z,50.50
2017-10-19T12:32:42.683Z,51.90
2017-10-19T12:35:12.241Z,52.30
2017-10-19T12:37:41.849Z,52.40
2017-10-19T12:40:11.363Z,51.90
2017-10-19T12:42:42.032Z,51.40
2017-10-19T12:45:13.039Z,51.20
2017-10-19T12:47:45.314Z,51.20
2017-10-19T12:50:15.170Z,51.00
2017-10-19T12:52:47.050Z,51.80
2017-10-19T12:55:17.125Z,52.80
2017-10-19T12:58:00.168Z,53.10
2017-10-19T13:00:34.404Z,53.60
2017-10-19T13:03:11.159Z,53.10
2017-10-19T13:05:55.339Z,53.10
2017-10-19T13:08:33.486Z,52.00
2017-10-19T13:11:07.794Z,52.80
2017-10-19T13:13:47.371Z,52.60
2017-10-19T13:16:18.121Z,51.60
2017-10-19T13:18:48.944Z,51.40
2017-10-19T13:21:18.889Z,51.40
2017-10-19T13:24:07.677Z,53.10
2017-10-19T13:26:38.633Z,54.60
2017-10-19T13:29:08.506Z,55.80
2017-10-19T13:31:41.902Z,53.70
2017-10-19T13:34:11.744Z,53.70
2017-10-19T13:36:41.337Z,53.40
2017-10-19T13:39:10.826Z,54.00
2017-10-19T13:41:40.554Z,53.90
2017-10-19T13:44:10.108Z,53.30
2017-10-19T13:46:41.818Z,53.30
2017-10-19T13:49:11.262Z,53.00
2017-10-19T13:51:40.796Z,51.20
2017-10-19T13:54:11.279Z,51.40
2017-10-19T13:56:40.942Z,51.40
2017-10-19T13:59:12.452Z,51.90
2017-10-19T14:01:42.187Z,51.90
2017-10-19T14:04:15.903Z,51.60
2017-10-19T14:06:47.024Z,52.20
2017-10-19T14:09:17.637Z,52.20
2017-10-19T14:11:48.894Z,52.70
2017-10-19T14:14:19.454Z,53.70
2017-10-19T14:16:50.673Z,53.90
2017-10-19T14:19:23.292Z,54.60
2017-10-19T14:21:53.957Z,54.50
2017-10-19T14:24:37.360Z,55.70
2017-10-19T14:27:19.877Z,58.00
2017-10-19T14:30:05.713Z,57.90
2017-10-19T14:32:45.592Z,57.80
2017-10-19T14:35:23.768Z,57.80
2017-10-19T14:38:06.207Z,58.40
2017-10-19T14:40:39.093Z,58.70
2017-10-19T14:43:09.568Z,59.70
2017-10-19T14:45:39.346Z,59.10
2017-10-19T14:48:09.861Z,59.40
2017-10-19T14:50:40.359Z,59.60
2017-10-19T14:53:11.789Z,59.40
2017-10-19T14:55:42.211Z,59.50
2017-10-19T14:58:12.742Z,59.50
2017-10-19T15:00:42.291Z,59.40
2017-10-19T15:03:11.860Z,59.70
2017-10-19T15:05:41.847Z,59.70
2017-10-19T15:08:11.520Z,60.00
2017-10-19T15:10:41.295Z,59.90
2017-10-19T15:13:11.077Z,60.10
2017-10-19T15:15:47.818Z,60.30
2017-10-19T15:18:30.815Z,61.00
2017-10-19T15:21:02.499Z,61.50
2017-10-19T15:23:36.711Z,61.50
2017-10-19T15:26:06.366Z,61.50
2017-10-19T15:28:35.824Z,61.70
2017-10-19T15:31:07.388Z,62.10
2017-10-19T15:33:42.650Z,62.40
2017-10-19T15:36:14.408Z,62.50
2017-10-19T15:38:54.081Z,62.90
2017-10-19T15:41:34.268Z,63.10
2017-10-19T15:44:06.205Z,63.10
2017-10-19T15:46:36.659Z,63.40
2017-10-19T15:49:08.879Z,63.60
2017-10-19T15:51:40.157Z,63.60
2017-10-19T15:54:24.320Z,63.60
2017-10-19T15:57:12.113Z,63.60
2017-10-19T15:59:42.886Z,64.00
2017-10-19T16:02:17.468Z,64.40
2017-10-19T16:04:47.689Z,64.50
2017-10-19T16:07:17.289Z,64.70
2017-10-19T16:09:56.743Z,65.00
2017-10-19T16:12:39.161Z,65.20
2017-10-19T16:15:10.350Z,65.60
2017-10-19T16:17:40.084Z,65.30
2017-10-19T16:20:23.810Z,65.70
2017-10-19T16:22:53.958Z,66.00
2017-10-19T16:25:27.144Z,66.50
2017-10-19T16:27:57.428Z,66.60
2017-10-19T16:30:28.732Z,67.20
2017-10-19T16:32:59.399Z,67.20
2017-10-19T16:35:29.350Z,67.40
2017-10-19T16:37:59.695Z,67.80
2017-10-19T16:40:33.285Z,67.60
2017-10-19T16:43:05.131Z,68.30
2017-10-19T16:45:35.677Z,68.20
2017-10-19T16:48:05.808Z,68.20
2017-10-19T16:51:08.469Z,68.60
2017-10-19T16:53:43.794Z,68.50
2017-10-19T16:56:20.083Z,68.50
2017-10-19T16:58:55.202Z,68.90
2017-10-19T17:01:29.556Z,68.90
2017-10-19T17:04:00.701Z,69.10
2017-10-19T17:06:30.618Z,69.10
2017-10-19T17:09:02.595Z,69.30
2017-10-19T17:11:42.543Z,69.50
2017-10-19T17:14:17.329Z,69.50
2017-10-19T17:16:46.947Z,69.80
2017-10-19T17:19:16.488Z,70.20
2017-10-19T17:21:51.558Z,70.10
2017-10-19T17:24:22.635Z,70.60
2017-10-19T17:26:52.134Z,70.80
2017-10-19T17:29:24.845Z,71.60
2017-10-19T17:31:56.278Z,71.50
2017-10-19T17:34:30.059Z,71.40
2017-10-19T17:37:03.632Z,71.20
2017-10-19T17:39:39.488Z,71.20
2017-10-19T17:42:18.313Z,71.20
2017-10-19T17:44:54.574Z,71.10
2017-10-19T17:47:43.996Z,71.20
2017-10-19T17:50:17.071Z,71.00
2017-10-19T17:52:50.163Z,71.40
2017-10-19T17:55:21.157Z,70.60
2017-10-19T17:57:50.870Z,70.40
2017-10-19T18:00:20.535Z,70.30
2017-10-19T18:02:54.138Z,70.00
2017-10-19T18:05:23.655Z,70.10
2017-10-19T18:07:53.631Z,70.10
2017-10-19T18:10:26.770Z,70.70
2017-10-19T18:12:56.809Z,70.70
2017-10-19T18:15:29.725Z,70.60
2017-10-19T18:18:05.714Z,70.50
2017-10-19T18:20:36.996Z,70.70
2017-10-19T18:23:07.754Z,70.70
2017-10-19T18:25:39.330Z,70.70
2017-10-19T18:28:11.182Z,70.70
2017-10-19T18:30:40.831Z,70.70
2017-10-19T18:33:10.617Z,70.40
2017-10-19T18:35:41.162Z,70.30
2017-10-19T18:38:11.379Z,71.00
2017-10-19T18:40:44.022Z,70.60
2017-10-19T18:43:14.678Z,70.90
2017-10-19T18:45:53.639Z,70.80
2017-10-19T18:48:24.943Z,71.10
2017-10-19T18:50:56.292Z,71.40
2017-10-19T18:53:26.538Z,71.50
2017-10-19T18:55:56.661Z,71.40
2017-10-19T18:58:26.547Z,71.30
2017-10-19T19:00:56.348Z,71.60
2017-10-19T19:03:28.101Z,72.20
2017-10-19T19:06:01.795Z,72.20
2017-10-19T19:08:32.699Z,72.50
2017-10-19T19:11:04.472Z,72.70
2017-10-19T19:13:44.089Z,73.00
2017-10-19T19:16:24.283Z,73.30
2017-10-19T19:18:55.846Z,73.90
2017-10-19T19:21:25.547Z,73.80
2017-10-19T19:23:56.584Z,74.30
2017-10-19T19:26:26.664Z,74.60
2017-10-19T19:28:57.349Z,75.00
2017-10-19T19:31:27.533Z,75.30
2017-10-19T19:33:57.873Z,75.30
2017-10-19T19:36:27.365Z,75.50
2017-10-19T19:38:56.949Z,75.70
2017-10-19T19:41:26.432Z,75.90
2017-10-19T19:43:56.734Z,76.10
2017-10-19T19:46:26.411Z,76.10
2017-10-19T19:48:56.700Z,76.10
2017-10-19T19:51:27.648Z,76.50
2017-10-19T19:53:57.164Z,76.50
2017-10-19T19:56:27.106Z,76.70
2017-10-19T19:58:57.118Z,76.50
2017-10-19T20:01:34.151Z,76.70
2017-10-19T20:04:08.694Z,76.70
2017-10-19T20:06:48.325Z,77.10
2017-10-19T20:09:23.368Z,77.00
2017-10-19T20:12:20.132Z,77.10
2017-10-19T20:14:51.902Z,77.10
2017-10-19T20:17:31.726Z,77.10
2017-10-19T20:20:10.993Z,77.10
2017-10-19T21:00:01.964Z,78.80
2017-10-19T21:02:34.760Z,79.00
2017-10-19T21:05:07.458Z,79.30
2017-10-19T21:07:40.144Z,79.20
2017-10-19T21:10:13.110Z,79.40
2017-10-19T21:12:45.304Z,79.10
2017-10-19T21:15:16.960Z,79.30
2017-10-19T21:17:50.667Z,79.40
2017-10-19T21:20:25.794Z,79.20
2017-10-19T21:22:58.144Z,79.30
2017-10-19T21:25:37.710Z,79.30
2017-10-19T21:28:27.609Z,79.30
2017-10-19T21:31:16.786Z,79.30
2017-10-19T21:34:00.440Z,79.40
2017-10-19T21:36:38.920Z,79.90
2017-10-19T21:39:25.378Z,79.10
2017-10-19T21:42:04.970Z,79.10
2017-10-19T21:44:40.969Z,78.60
2017-10-19T21:47:13.890Z,78.30
2017-10-19T21:49:45.524Z,78.30
2017-10-19T21:52:30.261Z,78.40
2017-10-19T21:55:05.463Z,78.40
2017-10-19T21:57:56.410Z,78.50
2017-10-19T22:00:30.897Z,78.70
2017-10-19T22:03:11.667Z,78.80
2017-10-19T22:05:43.353Z,78.80
2017-10-19T22:08:23.094Z,78.60
2017-10-19T22:10:52.879Z,78.60
2017-10-19T22:13:23.355Z,78.20
2017-10-19T22:15:55.277Z,78.00
2017-10-19T22:18:28.223Z,77.90
2017-10-19T22:21:00.509Z,77.50
2017-10-19T22:23:32.975Z,77.40
2017-10-19T22:26:05.605Z,77.40
2017-10-19T22:28:53.905Z,77.00
2017-10-19T22:31:31.584Z,77.00
2017-10-19T22:34:17.609Z,76.40
2017-10-19T22:36:49.707Z,76.40
2017-10-19T22:39:22.488Z,75.80
2017-10-19T22:41:53.785Z,75.80
2017-10-19T22:44:29.453Z,75.60
2017-10-19T22:47:00.282Z,75.30
2017-10-19T22:49:31.973Z,75.30
2017-10-19T22:54:55.379Z,75.00
2017-10-19T22:57:33.771Z,75.20
2017-10-19T23:00:06.004Z,75.20
2017-10-19T23:02:47.839Z,75.30
2017-10-19T23:05:21.993Z,75.20
2017-10-19T23:07:52.066Z,75.20
2017-10-19T23:10:23.657Z,75.40
2017-10-19T23:12:55.200Z,75.40
2017-10-19T23:15:26.471Z,75.50
2017-10-19T23:17:57.234Z,75.50
2017-10-19T23:20:29.857Z,75.30
2017-10-19T23:23:00.478Z,75.40
2017-10-19T23:25:38.572Z,75.10
2017-10-19T23:28:09.222Z,74.70
2017-10-19T23:30:40.785Z,74.60
2017-10-19T23:33:11.263Z,74.60
2017-10-19T23:35:43.812Z,73.90
2017-10-19T23:38:17.120Z,73.80
2017-10-19T23:40:47.775Z,73.40
2017-10-19T23:46:13.678Z,72.80
2017-10-19T23:48:45.432Z,72.80
2017-10-19T23:51:19.059Z,72.70
2017-10-19T23:53:49.623Z,71.70
2017-10-19T23:56:21.405Z,71.60
2017-10-19T23:58:52.050Z,71.20
